Time;durP1;ratioP1;P1;durP2;ratioP2;P2;SDS_P1;SDS_P2;PMS_P1;PMS_P2;Temp;Humidity;BMP_temperature;BMP_pressure;BME280_temperature;BME280_humidity;BME280_pressure;Samples;Min_cycle;Max_cycle;Signal;HPM_P1;HPM_P2
2022/07/15 00:00:32;;;;;;;;;;;;;;;18.00;99.17;98991.81;1724027;81;20174;-69
2022/07/15 00:02:59;;;;;;;;;;;;;;;17.97;99.44;98994.72;1702680;83;20433;-69
2022/07/15 00:05:26;;;;;;;;;;;;;;;17.94;99.43;98992.80;1713499;83;21582;-70
2022/07/15 00:07:52;;;;;;;;;;;;;;;17.88;99.13;98991.00;1678817;83;20479;-69
2022/07/15 00:10:20;;;;;;;;;;;;;;;17.83;99.33;98989.20;1708430;82;20196;-69
2022/07/15 00:12:49;;;;;;;;;;;;;;;17.79;99.78;98987.77;1706878;83;20169;-69
2022/07/15 00:15:17;;;;;;;;;;;;;;;17.74;100.00;98986.48;1735415;81;20207;-69
2022/07/15 00:17:43;;;;;;;;;;;;;;;17.68;100.00;98972.00;1706254;83;21108;-69
2022/07/15 00:20:10;;;;;;;;;;;;;;;17.64;100.00;98974.51;1689929;84;20166;-69
2022/07/15 00:22:37;;;;;;;;;;;;;;;17.60;100.00;98972.20;1689861;83;20137;-69
2022/07/15 00:25:04;;;;;;;;;;;;;;;17.55;100.00;98972.58;1682019;83;20140;-69
2022/07/15 00:27:31;;;;;;;;;;;;;;;17.50;100.00;98978.20;1679671;83;20132;-69
2022/07/15 00:29:57;;;;;;;;;;;;;;;17.46;100.00;98979.86;1677090;83;21128;-69
2022/07/15 00:32:23;;;;;;;;;;;;;;;17.44;100.00;98975.19;1686654;83;20177;-69
2022/07/15 00:34:51;;;;;;;;;;;;;;;17.39;100.00;98974.22;1726584;81;20439;-69
2022/07/15 00:37:19;;;;;;;;;;;;;;;17.35;100.00;98975.92;1722863;82;20169;-69
2022/07/15 00:39:46;;;;;;;;;;;;;;;17.31;100.00;98980.57;1690117;83;20431;-69
2022/07/15 00:42:43;;;;;;;;;;;;;;;17.27;100.00;98974.34;1683295;83;20958;-69
2022/07/15 00:44:42;;;;;;;;;;;;;;;17.23;100.00;98981.63;1679371;83;20192;-69
2022/07/15 00:47:08;;;;;;;;;;;;;;;17.17;100.00;98982.95;1696041;83;20136;-69
2022/07/15 00:49:35;;;;;;;;;;;;;;;17.13;100.00;98976.24;1686726;83;20388;-70
2022/07/15 00:52:01;;;;;;;;;;;;;;;17.10;100.00;98973.84;1695978;83;20240;-69
2022/07/15 00:54:28;;;;;;;;;;;;;;;17.06;100.00;98973.71;1709594;83;21142;-69
2022/07/15 00:56:56;;;;;;;;;;;;;;;17.03;100.00;98971.79;1680226;83;20482;-69
2022/07/15 00:59:25;;;;;;;;;;;;;;;16.99;100.00;98969.86;1676987;83;20451;-70
2022/07/15 01:01:52;;;;;;;;;;;;;;;16.96;100.00;98971.91;1708820;83;20452;-70
2022/07/15 01:04:19;;;;;;;;;;;;;;;16.92;100.00;98962.11;1694130;83;20144;-70
2022/07/15 01:06:45;;;;;;;;;;;;;;;16.90;100.00;98960.55;1693317;83;21048;-70
2022/07/15 01:09:12;;;;;;;;;;;;;;;16.85;100.00;98951.21;1686426;83;20212;-70
2022/07/15 01:11:40;;;;;;;;;;;;;;;16.84;100.00;98950.02;1694073;83;20142;-69
2022/07/15 01:14:08;;;;;;;;;;;;;;;16.82;100.00;98953.23;1665854;83;20203;-69
2022/07/15 01:16:34;;;;;;;;;;;;;;;16.81;100.00;98957.64;1681025;83;20248;-70
2022/07/15 01:19:01;;;;;;;;;;;;;;;16.80;100.00;98956.44;1702900;83;21138;-70
2022/07/15 01:21:31;;;;;;;;;;;;;;;16.78;100.00;98955.75;1749560;81;20477;-69
2022/07/15 01:23:58;;;;;;;;;;;;;;;16.75;100.00;98955.97;1692675;83;20152;-69
2022/07/15 01:26:33;;;;;;;;;;;;;;;16.73;100.00;98959.19;1709503;83;20154;-69
2022/07/15 01:29:01;;;;;;;;;;;;;;;16.69;100.00;98949.37;1690606;83;20431;-69
2022/07/15 01:31:28;;;;;;;;;;;;;;;16.65;100.00;98947.93;1698884;83;21150;-69
2022/07/15 01:33:55;;;;;;;;;;;;;;;16.65;100.00;98943.16;1683715;83;20148;-69
2022/07/15 01:36:24;;;;;;;;;;;;;;;16.62;100.00;98935.47;1689428;83;20147;-69
2022/07/15 01:38:52;;;;;;;;;;;;;;;16.58;100.00;98936.20;1693254;83;20173;-69
2022/07/15 01:41:19;;;;;;;;;;;;;;;16.56;100.00;98939.41;1713246;83;20207;-69
2022/07/15 01:43:46;;;;;;;;;;;;;;;16.52;100.00;98937.48;1708939;83;21893;-69
2022/07/15 01:46:12;;;;;;;;;;;;;;;16.52;100.00;98937.48;1684377;83;20219;-69
2022/07/15 01:51:41;;;;;;;;;;;;;;;16.48;100.00;98932.56;1696675;83;20149;-69
2022/07/15 01:54:08;;;;;;;;;;;;;;;16.48;100.00;98935.19;1686879;83;20137;-69
2022/07/15 01:56:36;;;;;;;;;;;;;;;16.45;100.00;98932.31;1698220;83;21122;-69
2022/07/15 01:59:03;;;;;;;;;;;;;;;16.45;100.00;98928.85;1715665;83;20472;-69
2022/07/15 02:01:30;;;;;;;;;;;;;;;16.43;100.00;98927.65;1689204;83;20085;-69
2022/07/15 02:03:57;;;;;;;;;;;;;;;16.43;100.00;98928.96;1693923;83;20183;-69
2022/07/15 02:06:24;;;;;;;;;;;;;;;16.41;100.00;98933.48;1699667;83;20149;-69
2022/07/15 02:08:50;;;;;;;;;;;;;;;16.41;100.00;98930.86;1686288;83;21094;-69
2022/07/15 02:11:20;;;;;;;;;;;;;;;16.42;100.00;98931.22;1686907;83;20139;-69
2022/07/15 02:13:48;;;;;;;;;;;;;;;16.43;100.00;98928.13;1688270;83;20165;-69
2022/07/15 02:16:16;;;;;;;;;;;;;;;16.43;100.00;98930.75;1688375;83;20225;-69
2022/07/15 02:18:43;;;;;;;;;;;;;;;16.43;100.00;98922.88;1679077;85;20192;-69
2022/07/15 02:21:10;;;;;;;;;;;;;;;16.44;100.00;98928.48;1698085;83;21080;-69
2022/07/15 02:23:36;;;;;;;;;;;;;;;16.45;100.00;98933.63;1685656;83;20174;-69
2022/07/15 02:26:03;;;;;;;;;;;;;;;16.49;100.00;98928.52;1717136;83;20178;-69
2022/07/15 02:28:31;;;;;;;;;;;;;;;16.57;100.00;98925.33;1687989;83;20155;-69
2022/07/15 02:30:58;;;;;;;;;;;;;;;16.67;100.00;98917.63;1699427;83;20463;-70
2022/07/15 02:33:25;;;;;;;;;;;;;;;16.76;100.00;98918.26;1686361;83;21936;-70
2022/07/15 02:35:52;;;;;;;;;;;;;;;16.80;100.00;98915.26;1694268;83;20177;-70
2022/07/15 02:38:19;;;;;;;;;;;;;;;16.81;100.00;98916.09;1684949;83;20161;-70
2022/07/15 02:40:48;;;;;;;;;;;;;;;16.84;100.00;98913.24;1676159;84;20105;-70
2022/07/15 02:43:15;;;;;;;;;;;;;;;16.87;100.00;98905.97;1692024;83;20246;-69
2022/07/15 02:45:44;;;;;;;;;;;;;;;16.91;100.00;98907.05;1710920;83;21565;-69
2022/07/15 02:48:12;;;;;;;;;;;;;;;16.94;100.00;98908.98;1694365;83;20195;-69
2022/07/15 02:50:41;;;;;;;;;;;;;;;16.97;100.00;98913.16;1676903;83;20455;-70
2022/07/15 02:53:07;;;;;;;;;;;;;;;17.02;100.00;98908.38;1682531;83;20161;-70
2022/07/15 02:55:35;;;;;;;;;;;;;;;17.05;100.00;98910.77;1730537;82;20195;-69
2022/07/15 02:58:02;;;;;;;;;;;;;;;17.13;100.00;98914.50;1717599;83;21134;-70
2022/07/15 03:00:30;;;;;;;;;;;;;;;17.23;100.00;98902.30;1712848;83;20169;-70
2022/07/15 03:02:58;;;;;;;;;;;;;;;17.30;100.00;98897.41;1720001;82;20193;-70
2022/07/15 03:05:24;;;;;;;;;;;;;;;17.36;100.00;98894.31;1732808;81;20454;-69
2022/07/15 03:07:51;;;;;;;;;;;;;;;17.41;100.00;98895.24;1737926;82;20171;-70
2022/07/15 03:10:18;;;;;;;;;;;;;;;17.45;100.00;98898.00;1751932;80;21110;-69
2022/07/15 03:12:47;;;;;;;;;;;;;;;17.49;100.00;98900.75;1729996;82;20181;-70
2022/07/15 03:15:14;;;;;;;;;;;;;;;17.53;100.00;98910.07;1684555;83;20145;-70
2022/07/15 03:17:41;;;;;;;;;;;;;;;17.57;100.00;98910.20;1717900;83;20227;-70
2022/07/15 03:20:09;;;;;;;;;;;;;;;17.62;99.74;98910.64;1702539;83;20428;-70
2022/07/15 03:22:38;;;;;;;;;;;;;;;17.65;99.33;98903.86;1690834;83;21134;-69
2022/07/15 03:25:05;;;;;;;;;;;;;;;17.66;98.84;98909.96;1706314;83;20268;-70
2022/07/15 03:27:33;;;;;;;;;;;;;;;17.64;98.57;98904.82;1686708;83;20492;-69
2022/07/15 03:30:01;;;;;;;;;;;;;;;17.61;98.58;98902.39;1714899;83;20303;-70
2022/07/15 03:32:27;;;;;;;;;;;;;;;17.64;98.79;98896.06;1686244;83;20150;-70
2022/07/15 03:34:56;;;;;;;;;;;;;;;17.68;98.82;98900.16;1685498;83;21122;-70
2022/07/15 03:37:24;;;;;;;;;;;;;;;17.72;98.59;98896.33;1711696;81;20185;-70
2022/07/15 03:39:50;;;;;;;;;;;;;;;17.75;98.23;98902.19;1715741;82;20452;-69
2022/07/15 03:42:17;;;;;;;;;;;;;;;17.78;98.12;98897.17;1688902;83;20146;-70
2022/07/15 03:44:44;;;;;;;;;;;;;;;17.80;98.14;98894.74;1697881;83;20177;-70
2022/07/15 03:47:10;;;;;;;;;;;;;;;17.83;98.14;98897.13;1690248;83;21780;-70
2022/07/15 03:49:36;;;;;;;;;;;;;;;17.86;98.14;98900.84;1678483;83;20259;-70
2022/07/15 03:52:04;;;;;;;;;;;;;;;17.90;98.22;98899.64;1678523;83;20136;-70
2022/07/15 03:54:32;;;;;;;;;;;;;;;17.96;97.91;98898.31;1680511;83;20442;-70
2022/07/15 03:57:00;;;;;;;;;;;;;;;18.01;97.46;98900.08;1672115;84;20152;-69
2022/07/15 03:59:27;;;;;;;;;;;;;;;18.06;97.19;98892.66;1661042;84;21151;-68
2022/07/15 04:01:53;;;;;;;;;;;;;;;18.12;96.96;98893.95;1715244;81;20540;-66
2022/07/15 04:04:19;;;;;;;;;;;;;;;18.16;96.62;98892.27;1724472;81;20178;-67
2022/07/15 04:06:46;;;;;;;;;;;;;;;18.20;96.13;98884.45;1725134;81;20183;-66
2022/07/15 04:09:12;;;;;;;;;;;;;;;18.25;96.24;98892.81;1697295;82;20546;-69
2022/07/15 04:11:42;;;;;;;;;;;;;;;18.31;96.21;98888.02;1704875;83;21140;-72
2022/07/15 04:14:13;;;;;;;;;;;;;;;18.36;95.85;98884.53;1675003;83;20149;-73
2022/07/15 04:16:41;;;;;;;;;;;;;;;18.42;95.17;98881.37;1680903;83;20148;-73
2022/07/15 04:19:09;;;;;;;;;;;;;;;18.44;94.79;98883.40;1679983;83;20148;-73
2022/07/15 04:21:36;;;;;;;;;;;;;;;18.48;94.27;98881.71;1687911;83;20448;-73
2022/07/15 04:24:02;;;;;;;;;;;;;;;18.53;93.56;98876.06;1683667;83;21077;-73
2022/07/15 04:26:29;;;;;;;;;;;;;;;18.60;93.01;98875.92;1698445;83;20141;-72
2022/07/15 04:28:56;;;;;;;;;;;;;;;18.67;92.67;98878.41;1726493;81;20177;-72
2022/07/15 04:31:23;;;;;;;;;;;;;;;18.74;92.28;98874.78;1732535;81;20392;-72
2022/07/15 04:33:51;;;;;;;;;;;;;;;18.82;91.98;98879.73;1726878;81;20225;-72
2022/07/15 04:36:18;;;;;;;;;;;;;;;18.91;91.32;98876.34;1703438;83;21113;-72
2022/07/15 04:38:44;;;;;;;;;;;;;;;19.02;90.73;98871.45;1715336;83;20097;-72
2022/07/15 04:41:11;;;;;;;;;;;;;;;19.14;89.82;98875.69;1702816;83;20201;-73
2022/07/15 04:43:37;;;;;;;;;;;;;;;19.28;89.26;98873.17;1680335;85;20160;-72
2022/07/15 04:46:04;;;;;;;;;;;;;;;19.49;88.95;98866.52;1713822;83;20175;-72
2022/07/15 04:51:17;;;;;;;;;;;;;;;20.24;87.07;98859.36;1685608;83;20165;-73
2022/07/15 04:53:43;;;;;;;;;;;;;;;21.02;86.00;98857.44;1691599;83;20182;-73
2022/07/15 04:56:12;;;;;;;;;;;;;;;21.74;82.22;98865.98;1692850;83;20563;-73
2022/07/15 04:58:39;;;;;;;;;;;;;;;22.26;79.74;98855.10;1686059;83;20448;-74
2022/07/15 05:01:07;;;;;;;;;;;;;;;22.58;76.41;98850.58;1694625;83;21157;-75
2022/07/15 05:03:34;;;;;;;;;;;;;;;22.82;74.77;98849.42;1651661;85;20185;-75
2022/07/15 05:06:01;;;;;;;;;;;;;;;23.18;72.63;98848.79;1696322;83;20153;-75
2022/07/15 05:08:30;;;;;;;;;;;;;;;23.62;69.94;98846.02;1662489;84;20159;-75
2022/07/15 05:10:56;;;;;;;;;;;;;;;24.27;67.27;98848.33;1646018;86;20171;-75
2022/07/15 05:13:23;;;;;;;;;;;;;;;25.03;64.61;98839.12;1657718;85;21732;-76
2022/07/15 05:15:51;;;;;;;;;;;;;;;25.83;60.83;98846.45;1661360;85;20171;-76
2022/07/15 05:18:22;;;;;;;;;;;;;;;26.52;57.97;98837.15;1688843;84;20179;-76
2022/07/15 05:20:51;;;;;;;;;;;;;;;27.14;55.59;98841.72;1647487;85;20312;-76
2022/07/15 05:23:19;;;;;;;;;;;;;;;27.45;53.41;98842.83;1649753;85;20141;-75
2022/07/15 05:25:47;;;;;;;;;;;;;;;27.39;52.48;98835.05;1650066;85;21139;-75
2022/07/15 05:28:15;;;;;;;;;;;;;;;27.31;52.54;98834.34;1657121;85;20196;-75
2022/07/15 05:30:42;;;;;;;;;;;;;;;27.47;51.43;98833.30;1628326;86;20213;-76
2022/07/15 05:33:09;;;;;;;;;;;;;;;27.85;50.83;98828.13;1683467;83;20338;-75
2022/07/15 05:35:36;;;;;;;;;;;;;;;28.33;49.52;98833.77;1700126;81;20255;-76
2022/07/15 05:38:03;;;;;;;;;;;;;;;28.79;48.26;98826.09;1724743;82;21159;-75
2022/07/15 05:40:32;;;;;;;;;;;;;;;29.17;47.02;98829.26;1717647;81;20172;-76
2022/07/15 05:42:58;;;;;;;;;;;;;;;29.55;45.88;98829.67;1705220;81;20785;-75
2022/07/15 05:45:25;;;;;;;;;;;;;;;29.91;45.42;98823.99;1716477;81;20192;-75
2022/07/15 05:47:59;;;;;;;;;;;;;;;30.25;43.79;98814.16;1723809;80;20179;-75
2022/07/15 05:50:28;;;;;;;;;;;;;;;30.48;43.15;98817.27;1714327;82;21220;-75
2022/07/15 05:52:56;;;;;;;;;;;;;;;30.58;42.32;98820.89;1721247;81;20205;-76
2022/07/15 05:55:23;;;;;;;;;;;;;;;30.57;42.57;98808.02;1709458;81;20236;-76
2022/07/15 05:57:49;;;;;;;;;;;;;;;30.69;41.08;98814.39;1720490;81;20180;-76
2022/07/15 06:00:18;;;;;;;;;;;;;;;30.67;39.83;98808.41;1709097;83;20190;-75
2022/07/15 06:02:47;;;;;;;;;;;;;;;30.60;38.91;98808.09;1714365;83;21144;-76
2022/07/15 06:05:17;;;;;;;;;;;;;;;30.44;38.49;98807.97;1708966;83;20139;-75
2022/07/15 06:07:46;;;;;;;;;;;;;;;30.26;38.21;98805.91;1691612;83;20419;-75
2022/07/15 06:10:13;;;;;;;;;;;;;;;30.10;38.50;98809.83;1713456;83;20194;-74
2022/07/15 06:12:40;;;;;;;;;;;;;;;29.98;38.75;98804.73;1712533;83;20454;-76
2022/07/15 06:15:08;;;;;;;;;;;;;;;29.86;38.89;98809.02;1712077;82;21105;-75
2022/07/15 06:17:37;;;;;;;;;;;;;;;29.65;38.66;98806.49;1717720;82;20145;-75
2022/07/15 06:20:06;;;;;;;;;;;;;;;29.32;39.22;98799.66;1731050;81;20165;-74
2022/07/15 06:22:34;;;;;;;;;;;;;;;29.18;39.47;98795.27;1711533;83;20419;-78
2022/07/15 06:25:01;;;;;;;;;;;;;;;29.14;39.95;98803.70;1713724;83;20198;-75
2022/07/15 06:27:29;;;;;;;;;;;;;;;29.14;39.76;98797.00;1714771;83;21832;-75
2022/07/15 06:29:59;;;;;;;;;;;;;;;29.15;40.39;98797.83;1718487;83;20279;-75
2022/07/15 06:32:26;;;;;;;;;;;;;;;29.18;40.47;98792.59;1717487;83;20218;-76
2022/07/15 06:34:54;;;;;;;;;;;;;;;29.18;40.47;98792.05;1714301;83;20351;-75
2022/07/15 06:37:21;;;;;;;;;;;;;;;29.18;40.68;98792.05;1713610;83;20198;-75
2022/07/15 06:39:48;;;;;;;;;;;;;;;29.19;40.61;98793.70;1716755;83;21117;-75
2022/07/15 06:42:15;;;;;;;;;;;;;;;29.16;40.73;98791.97;1718780;82;20149;-75
2022/07/15 06:44:44;;;;;;;;;;;;;;;29.08;40.59;98792.44;1714435;83;20207;-74
2022/07/15 06:47:10;;;;;;;;;;;;;;;28.98;41.05;98790.61;1733917;81;20822;-75
2022/07/15 06:49:38;;;;;;;;;;;;;;;28.97;41.90;98792.17;1731317;81;20200;-74
2022/07/15 06:52:05;;;;;;;;;;;;;;;28.95;41.13;98787.53;1719179;81;21268;-75
2022/07/15 06:54:31;;;;;;;;;;;;;;;28.86;40.65;98796.73;1721824;81;20455;-74
2022/07/15 06:56:59;;;;;;;;;;;;;;;28.71;41.27;98804.84;1724915;81;20487;-73
2022/07/15 06:59:25;;;;;;;;;;;;;;;28.56;41.70;98798.27;1730518;81;20153;-73
2022/07/15 07:01:56;;;;;;;;;;;;;;;28.46;41.97;98792.41;1702666;82;20202;-73
2022/07/15 07:04:24;;;;;;;;;;;;;;;28.40;42.03;98797.19;1733698;82;21210;-74
2022/07/15 07:06:51;;;;;;;;;;;;;;;28.35;42.25;98797.80;1665797;84;20171;-75
2022/07/15 07:09:18;;;;;;;;;;;;;;;28.31;42.17;98800.53;1724587;81;20184;-74
2022/07/15 07:11:44;;;;;;;;;;;;;;;28.32;42.68;98786.66;1718792;82;20190;-75
2022/07/15 07:14:11;;;;;;;;;;;;;;;28.38;43.03;98780.00;1733938;82;20231;-74
2022/07/15 07:16:42;;;;;;;;;;;;;;;28.57;42.26;98783.04;1727056;82;21156;-75
2022/07/15 07:19:11;;;;;;;;;;;;;;;28.80;40.54;98778.26;1710591;82;20518;-74
2022/07/15 07:21:40;;;;;;;;;;;;;;;28.92;40.33;98782.56;1718987;82;20191;-75
2022/07/15 07:24:14;;;;;;;;;;;;;;;28.93;40.53;98775.68;1720767;81;20202;-75
2022/07/15 07:26:45;;;;;;;;;;;;;;;28.89;40.26;98779.77;1734551;82;20268;-74
2022/07/15 07:29:14;;;;;;;;;;;;;;;28.87;40.46;98783.66;1729425;82;21935;-75
2022/07/15 07:31:40;;;;;;;;;;;;;;;28.91;40.36;98784.92;1718848;82;20214;-74
2022/07/15 07:34:06;;;;;;;;;;;;;;;28.98;39.90;98778.56;1711858;82;20193;-76
2022/07/15 07:36:33;;;;;;;;;;;;;;;29.04;39.63;98780.46;1714317;83;20188;-74
2022/07/15 07:39:00;;;;;;;;;;;;;;;29.10;39.78;98783.70;1713509;83;20182;-71
2022/07/15 07:41:26;;;;;;;;;;;;;;;29.20;39.83;98787.84;1705918;81;21729;-71
2022/07/15 07:43:54;;;;;;;;;;;;;;;29.31;39.11;98784.61;1740880;80;20188;-70
2022/07/15 07:46:20;;;;;;;;;;;;;;;29.37;37.63;98781.14;1723583;80;20924;-70
2022/07/15 07:48:47;;;;;;;;;;;;;;;29.33;37.89;98786.06;1711134;81;20211;-69
2022/07/15 07:51:14;;;;;;;;;;;;;;;29.37;37.78;98788.66;1734006;81;20241;-70
2022/07/15 07:53:40;;;;;;;;;;;;;;;29.42;37.94;98777.35;1736007;81;20991;-70
2022/07/15 07:56:08;;;;;;;;;;;;;;;29.54;37.73;98773.59;1720219;81;20635;-71
2022/07/15 07:58:35;;;;;;;;;;;;;;;29.69;37.48;98766.20;1714184;80;20467;-70
2022/07/15 08:01:01;;;;;;;;;;;;;;;29.85;36.67;98775.72;1738409;80;20386;-71
2022/07/15 08:03:29;;;;;;;;;;;;;;;29.91;37.00;98769.55;1726863;80;20184;-70
2022/07/15 08:05:55;;;;;;;;;;;;;;;30.00;37.67;98777.72;1715195;83;21151;-71
2022/07/15 08:08:25;;;;;;;;;;;;;;;30.09;35.83;98762.58;1728143;82;20159;-70
2022/07/15 08:10:55;;;;;;;;;;;;;;;30.10;35.11;98776.30;1728694;80;20924;-70
2022/07/15 08:13:23;;;;;;;;;;;;;;;30.08;35.40;98785.58;1701912;83;20557;-70
2022/07/15 08:15:51;;;;;;;;;;;;;;;30.01;35.34;98792.78;1680096;84;20458;-70
2022/07/15 08:18:18;;;;;;;;;;;;;;;29.89;35.69;98792.53;1682113;83;21113;-71
2022/07/15 08:20:44;;;;;;;;;;;;;;;29.85;35.57;98792.62;1714931;80;20179;-70
2022/07/15 08:23:11;;;;;;;;;;;;;;;29.79;35.82;98798.79;1704050;82;20202;-70
2022/07/15 08:25:37;;;;;;;;;;;;;;;29.75;36.32;98800.25;1738418;81;20222;-72
2022/07/15 08:28:13;;;;;;;;;;;;;;;29.72;36.36;98803.33;1740907;80;20207;-70
2022/07/15 08:30:41;;;;;;;;;;;;;;;29.71;36.56;98798.99;1734971;80;21137;-71
2022/07/15 08:33:08;;;;;;;;;;;;;;;29.64;36.44;98814.22;1705865;83;20204;-70
2022/07/15 08:35:36;;;;;;;;;;;;;;;29.55;36.91;98809.57;1722381;81;20201;-69
2022/07/15 08:38:05;;;;;;;;;;;;;;;29.44;37.39;98814.15;1697479;83;20464;-69
2022/07/15 08:40:32;;;;;;;;;;;;;;;29.35;38.14;98824.20;1739750;80;20140;-69
2022/07/15 08:42:58;;;;;;;;;;;;;;;29.32;38.65;98821.91;1765777;80;21194;-69
2022/07/15 08:45:25;;;;;;;;;;;;;;;29.27;38.92;98831.05;1763897;81;20197;-70
2022/07/15 08:47:52;;;;;;;;;;;;;;;29.21;38.48;98835.02;1766179;81;20518;-69
2022/07/15 08:50:19;;;;;;;;;;;;;;;29.16;38.88;98829.45;1761276;80;20165;-69
2022/07/15 08:52:46;;;;;;;;;;;;;;;29.18;39.58;98843.48;1727757;81;20170;-70
2022/07/15 08:55:15;;;;;;;;;;;;;;;29.13;40.43;98845.41;1704721;84;21332;-69
2022/07/15 08:57:47;;;;;;;;;;;;;;;28.96;40.87;98848.91;1711948;83;20209;-68
2022/07/15 09:00:14;;;;;;;;;;;;;;;28.82;41.66;98862.38;1748521;80;20196;-69
2022/07/15 09:02:41;;;;;;;;;;;;;;;28.76;41.49;98858.11;1723064;81;20173;-69
2022/07/15 09:05:22;;;;;;;;;;;;;;;28.80;41.17;98851.34;1725931;82;20218;-70
2022/07/15 09:08:14;;;;;;;;;;;;;;;28.74;40.86;98857.47;1748857;82;21143;-70
2022/07/15 09:10:53;;;;;;;;;;;;;;;28.62;41.49;98859.00;1734419;81;20223;-75
2022/07/15 09:13:29;;;;;;;;;;;;;;;28.54;41.88;98862.34;1706824;81;20231;-70
2022/07/15 09:15:55;;;;;;;;;;;;;;;28.48;41.52;98871.14;1710580;81;20177;-72
2022/07/15 09:18:24;;;;;;;;;;;;;;;28.42;42.01;98870.88;1718517;81;20264;-74
2022/07/15 09:20:51;;;;;;;;;;;;;;;28.40;42.20;98868.90;1730177;81;21164;-74
2022/07/15 09:23:22;;;;;;;;;;;;;;;28.29;42.39;98862.74;1749141;81;20510;-76
2022/07/15 09:25:51;;;;;;;;;;;;;;;28.18;42.63;98871.22;1728263;81;20224;-71
2022/07/15 09:28:18;;;;;;;;;;;;;;;28.13;41.82;98857.63;1733612;82;20372;-77
2022/07/15 09:33:38;;;;;;;;;;;;;;;28.38;42.27;98856.22;1718972;81;21345;-72
2022/07/15 09:36:18;;;;;;;;;;;;;;;28.58;41.81;98860.41;1728024;82;20175;-70
2022/07/15 09:38:51;;;;;;;;;;;;;;;28.74;42.13;98860.66;1692782;83;20203;-69
2022/07/15 09:41:32;;;;;;;;;;;;;;;28.89;42.16;98858.73;1680559;83;20163;-69
2022/07/15 09:44:10;;;;;;;;;;;;;;;29.03;41.95;98863.66;1716119;83;20209;-68
2022/07/15 09:46:57;;;;;;;;;;;;;;;29.08;42.38;98863.90;1713377;83;21101;-67
2022/07/15 09:49:27;;;;;;;;;;;;;;;29.10;43.36;98857.84;1700534;83;20218;-70
2022/07/15 09:52:00;;;;;;;;;;;;;;;29.23;42.99;98855.23;1684124;83;20185;-68
2022/07/15 09:54:32;;;;;;;;;;;;;;;29.37;41.73;98852.95;1687039;83;20159;-69
2022/07/15 09:57:01;;;;;;;;;;;;;;;29.40;41.71;98851.22;1702509;83;20171;-69
2022/07/15 09:59:29;;;;;;;;;;;;;;;29.46;42.16;98855.79;1704262;83;21309;-68
2022/07/15 10:01:58;;;;;;;;;;;;;;;29.62;41.45;98845.23;1697511;83;20167;-69
2022/07/15 10:04:26;;;;;;;;;;;;;;;29.75;40.10;98851.17;1687027;83;20206;-70
2022/07/15 10:06:53;;;;;;;;;;;;;;;29.76;40.04;98841.59;1695714;83;20515;-68
2022/07/15 10:09:25;;;;;;;;;;;;;;;29.75;40.12;98849.84;1696864;83;20175;-68
2022/07/15 10:11:54;;;;;;;;;;;;;;;29.80;39.66;98854.88;1685020;83;21087;-69
2022/07/15 10:14:56;;;;;;;;;;;;;;;29.87;39.75;98851.41;1695541;83;20200;-68
2022/07/15 10:17:43;;;;;;;;;;;;;;;29.79;39.32;98860.44;1683345;83;20268;-68
2022/07/15 10:20:44;;;;;;;;;;;;;;;29.53;40.24;98866.55;1710011;83;20205;-68
2022/07/15 10:23:31;;;;;;;;;;;;;;;29.41;40.64;98847.52;1715422;83;20165;-69
2022/07/15 10:56:39;;;;;;;;;;;;;;;28.68;43.47;98885.00;1719298;82;20179;-70
2022/07/15 10:59:21;;;;;;;;;;;;;;;28.58;43.07;98891.17;1717537;82;20186;-70
2022/07/15 11:02:04;;;;;;;;;;;;;;;28.52;41.96;98902.67;1727763;81;20170;-71
2022/07/15 11:04:31;;;;;;;;;;;;;;;28.38;42.45;98904.88;1733347;81;20273;-69
2022/07/15 11:07:09;;;;;;;;;;;;;;;28.33;41.86;98899.30;1712230;81;20204;-69
2022/07/15 11:10:04;;;;;;;;;;;;;;;28.32;41.71;98899.80;1721397;81;21252;-70
2022/07/15 11:12:36;;;;;;;;;;;;;;;28.39;41.17;98896.66;1714631;81;20181;-68
2022/07/15 11:15:14;;;;;;;;;;;;;;;28.49;39.08;98898.20;1713979;82;20488;-69
2022/07/15 11:17:42;;;;;;;;;;;;;;;28.49;39.63;98891.01;1721765;81;20229;-69
2022/07/15 11:20:11;;;;;;;;;;;;;;;28.54;40.21;98895.28;1687786;83;20160;-69
2022/07/15 11:22:38;;;;;;;;;;;;;;;28.66;40.46;98897.73;1672857;83;21136;-68
2022/07/15 11:25:06;;;;;;;;;;;;;;;28.75;39.58;98910.48;1674883;82;20450;-70
2022/07/15 11:27:32;;;;;;;;;;;;;;;28.71;39.18;98907.36;1712605;82;20432;-69
2022/07/15 11:30:02;;;;;;;;;;;;;;;28.66;39.24;98908.45;1721520;82;20390;-68
2022/07/15 11:32:30;;;;;;;;;;;;;;;28.61;40.19;98914.05;1724848;82;20195;-67
2022/07/15 11:34:58;;;;;;;;;;;;;;;28.54;40.60;98911.84;1725086;82;21116;-69
2022/07/15 11:37:32;;;;;;;;;;;;;;;28.40;40.07;98928.25;1728842;82;20189;-70
2022/07/15 11:44:29;;;;;;;;;;;;;;;28.17;39.52;98923.07;1714376;82;20179;-69
2022/07/15 11:45:35;;;;;;;;;;;;;;;27.83;38.99;98941.05;1726468;82;20187;-69
2022/07/15 11:48:06;;;;;;;;;;;;;;;27.70;38.20;98940.90;1721709;82;21157;-68
2022/07/15 11:50:33;;;;;;;;;;;;;;;27.51;38.83;98952.94;1702203;82;20154;-69
2022/07/15 11:53:00;;;;;;;;;;;;;;;27.30;40.00;98955.00;1713610;81;20185;-68
2022/07/15 11:55:27;;;;;;;;;;;;;;;27.08;40.57;98943.88;1728119;80;20589;-69
2022/07/15 11:57:56;;;;;;;;;;;;;;;26.89;40.35;98957.70;1722973;80;20263;-69
2022/07/15 12:00:30;;;;;;;;;;;;;;;26.68;40.49;98952.53;1700636;83;20170;-69
2022/07/15 12:03:09;;;;;;;;;;;;;;;26.49;41.71;98966.84;1707553;83;20176;-68
2022/07/15 12:05:36;;;;;;;;;;;;;;;26.33;42.37;98972.61;1699777;83;20453;-69
2022/07/15 12:08:04;;;;;;;;;;;;;;;26.14;43.11;98972.20;1701760;83;20190;-68
2022/07/15 12:10:35;;;;;;;;;;;;;;;25.89;44.41;98970.97;1710335;83;20205;-70
2022/07/15 12:13:01;;;;;;;;;;;;;;;25.65;45.57;98970.56;1707713;83;21278;-70
2022/07/15 12:15:29;;;;;;;;;;;;;;;25.38;46.30;98962.94;1708002;83;20189;-70
2022/07/15 12:17:55;;;;;;;;;;;;;;;25.23;46.94;98986.77;1717482;83;20183;-72
2022/07/15 12:20:22;;;;;;;;;;;;;;;25.13;47.50;98980.80;1706741;82;20475;-71
2022/07/15 12:23:08;;;;;;;;;;;;;;;25.08;48.31;98977.81;1726775;82;20210;-71
2022/07/15 12:25:35;;;;;;;;;;;;;;;25.06;48.76;98965.17;1743599;81;21147;-71
2022/07/15 12:28:02;;;;;;;;;;;;;;;25.05;49.53;98970.98;1729728;81;20321;-72
2022/07/15 12:30:37;;;;;;;;;;;;;;;25.05;48.96;98969.66;1709026;83;20234;-68
2022/07/15 12:33:18;;;;;;;;;;;;;;;25.04;48.79;98967.16;1719243;82;20835;-71
2022/07/15 12:35:44;;;;;;;;;;;;;;;24.98;48.93;98974.50;1709593;82;20446;-70
2022/07/15 12:38:27;;;;;;;;;;;;;;;24.88;49.11;98982.61;1713885;82;21561;-71
2022/07/15 12:40:56;;;;;;;;;;;;;;;24.80;49.73;98984.42;1732816;81;20190;-72
2022/07/15 12:43:26;;;;;;;;;;;;;;;24.76;50.54;98992.42;1722662;81;20262;-72
2022/07/15 12:45:53;;;;;;;;;;;;;;;24.81;50.80;98994.90;1723469;82;20187;-71
2022/07/15 12:48:20;;;;;;;;;;;;;;;24.92;50.71;98993.25;1724911;82;20228;-72
2022/07/15 12:50:50;;;;;;;;;;;;;;;25.04;50.59;98992.44;1731277;82;21377;-71
2022/07/15 12:53:18;;;;;;;;;;;;;;;25.16;50.50;98990.28;1739662;82;20499;-72
2022/07/15 12:55:47;;;;;;;;;;;;;;;25.20;50.69;98985.77;1737487;81;20249;-71
2022/07/15 12:58:15;;;;;;;;;;;;;;;25.27;50.44;98992.09;1715948;81;20516;-71
2022/07/15 13:00:47;;;;;;;;;;;;;;;25.33;50.23;98996.75;1718285;82;20141;-72
2022/07/15 13:03:19;;;;;;;;;;;;;;;25.39;50.21;98976.58;1722739;83;21181;-72
2022/07/15 13:05:51;;;;;;;;;;;;;;;25.50;48.73;98979.41;1723206;83;20536;-72
2022/07/15 13:08:19;;;;;;;;;;;;;;;25.60;49.82;98987.52;1724111;83;20175;-71
2022/07/15 13:10:49;;;;;;;;;;;;;;;25.62;49.36;98990.01;1723918;82;20200;-71
2022/07/15 13:13:17;;;;;;;;;;;;;;;25.52;48.52;98988.05;1724477;83;20342;-71
2022/07/15 13:15:44;;;;;;;;;;;;;;;25.39;48.00;98992.55;1723740;83;21775;-69
2022/07/15 13:18:11;;;;;;;;;;;;;;;25.30;49.24;98994.42;1724123;83;20145;-68
2022/07/15 13:20:38;;;;;;;;;;;;;;;25.24;48.70;99004.40;1724283;83;20148;-69
2022/07/15 13:23:05;;;;;;;;;;;;;;;25.20;48.39;98999.58;1723974;83;20161;-69
2022/07/15 13:25:35;;;;;;;;;;;;;;;25.18;47.56;98997.61;1723978;83;20506;-71
2022/07/15 13:28:01;;;;;;;;;;;;;;;25.17;47.59;98997.27;1724149;83;21196;-72
2022/07/15 13:30:28;;;;;;;;;;;;;;;25.18;47.47;98999.73;1723811;83;20129;-69
2022/07/15 13:32:55;;;;;;;;;;;;;;;25.13;48.28;99000.77;1723885;83;20181;-69
2022/07/15 13:35:21;;;;;;;;;;;;;;;25.17;48.86;98995.94;1724318;83;20166;-70